Results:

Show Individual Results Yes
Show Team Results Yes
Show Relay Team Results Yes
Selected gender combined
Show name as link Yes
 

W&G Fun Run

W&G Fun Run (6k)
Sunday, 5th April 1987
 
 
Place Name Chest Sex State Age CAT Time Pace Elig Points
1. Susan Hobson F ACT 29 21:43 3:37 Y
2. Gayelene Clews F ACT 26 22:00 3:40 Y
3. Eleanor Cody F 22:10 3:41 Y
4. Jo Cullen F QLD 38 W35 22:14 3:42 Y
5. Charlotte Templeton F 22:23 3:43 Y
6. Angela Luchetti F ACT 17 U18 22:28 3:44 Y
7. Joy Terry F NSW 18 U20 22:42 3:47 Y
8. Samantha Naudin F ACT 21 23:00 3:50 Y
9. Anna Thompson F ACT 13 U14 23:05 3:50 Y
10. Elizabeth Bannister F 23:42 3:57 Y
11. Georgina Byron F 23:50 3:58 Y
12. Mary Ann Busteed F ACT 38 W35 23:52 3:58 Y
13. Andree Gilroy F 24:10 4:01 Y
14. Rachel Thompson F 24:18 4:03 Y
15. Miliadelle Murray F 13 U14 24:19 4:03 Y
16. Terri-Anne Smith F NSW 13 U14 24:26 4:04 Y
17. Michelle Drenkovski F 24:44 4:07 Y
18. Linda Lenton F ACT 38 W35 24:44 4:07 Y
19. Linda Jamieson F 35 W35 24:51 4:08 Y
20. Glenda Regan F ACT 22 24:53 4:08 Y
21. Jillian Pratten F NSW 32 24:57 4:09 Y
22. Terrina Thompson F 25:07 4:11 Y
23. Miriam McCarthy F ACT 30 25:19 4:13 Y
24. Michelle Lomas F 25:23 4:13 Y
25. Kerri Cullen F 25:28 4:14 Y
26. Norma Lindemann F ACT 45 W45 25:30 4:15 Y
27. Leonie Carr F ACT 12 U14 25:34 4:15 Y
28. Carol Ey F ACT 27 25:35 4:15 Y
29. Samantha Whybrow F ACT 11 U12 25:35 4:15 Y
30. Achapala Wilson F ACT 24 25:37 4:16 Y
31. Jan Williams F 35 W35 25:55 4:19 Y
32. Gwen Vines F ACT 40 W40 25:57 4:19 Y
33. A L Baker F 26:05 4:20 Y
34. Patricia Harris F ACT 36 W35 26:07 4:21 Y
35. Rosemary Parker F ACT 40 W40 26:10 4:21 Y
36. Jenny Whiting F ACT 27 26:10 4:21 Y
37. Jane McCallum F ACT 27 26:14 4:22 Y
38. Deborah Stokes F 26:17 4:22 Y
39. Simons Reynolds F 26:21 4:23 Y
40. Beth Peedom F ACT 42 W40 26:21 4:23 Y
41. Lexie Williams F 26:23 4:23 Y
42. Mary Silver F ACT 23 26:23 4:23 Y
43. Rebecca Blackburn F ACT 26:25 4:24 Y
44. Rosalind McDonald F 26:28 4:24 Y
45. Judi Edwards F ACT 39 W35 26:32 4:25 Y
46. Fiona Hedgecoe F ACT 14 U16 26:32 4:25 Y
47. Narelle Budd F ACT 25 26:39 4:26 Y
48. Jenny Hewitson F 26:41 4:26 Y
49. Rachel Storey F ACT 21 26:44 4:27 Y
50. Jackie Neil F 26:46 4:27 Y
51. Jennie Fitzgerald F 26:51 4:28 Y
52. Sharyn O'Connell F 27:03 4:30 Y
53. Debbie Leigh F ACT 17 U18 27:05 4:30 Y
54. Carolyn Knutsen F 27:14 4:32 Y
55. Brenda Parkes F ACT 29 27:14 4:32 Y
56. Tammie King F ACT 13 U14 27:16 4:32 Y
57. Janet Wingur F 27:16 4:32 Y
58. Sue McRae F 39 W35 27:18 4:33 Y
59. Cathy De Castella F 27:27 4:34 Y
60. Margaret Agnew F 27:30 4:35 Y
61. Olivia Molineux F 27:30 4:35 Y
62. Eija Raisanen F 27:30 4:35 Y
63. Fiona Dunin F 27:35 4:35 Y
64. Jodi Raines F 27:39 4:36 Y
65. Anne Young F ACT 51 W50 27:39 4:36 Y
66. Sue Counsel F ACT 47 W45 27:39 4:36 Y
67. Shirley Rake F 32 27:41 4:36 Y
68. Shane Barrett F ACT 32 27:48 4:38 Y
69. Kerry Jackson F ACT 30 27:51 4:38 Y
70. Anne Binehan F 27:57 4:39 Y
71. Anne Richard F 28:01 4:40 Y
72. Tonya Walsh F 28:01 4:40 Y
73. Lois Bolton F 28:01 4:40 Y
74. Helen Palethorpe F 28:03 4:40 Y
75. Bronwyn Muller F 28:05 4:40 Y
76. Lilian Monahan F 28:05 4:40 Y
77. Kerry Leigh F ACT 14 U16 28:08 4:41 Y
78. Judy Allison F ACT 38 W35 28:10 4:41 Y
79. Erika Parkinson F ACT 37 W35 28:10 4:41 Y
80. Kathleen Bleakley F ACT 15 U16 28:23 4:43 Y
81. Lyn Valentine F 32 28:32 4:45 Y
82. Mary Kelaher F 28:37 4:46 Y
83. Jill Reich F ACT 25 28:37 4:46 Y
84. Jenny Peedoh F 28:41 4:46 Y
85. Sue Hatcher F ACT 36 W35 28:42 4:47 Y
86. Sue Gilbert F NSW 37 W35 28:48 4:48 Y
87. Susie Kluth F ACT 15 U16 28:51 4:48 Y
88. Elizabeth Millar F 28:55 4:49 Y
89. Gaye Wilson F 28:55 4:49 Y
90. Gillian Boyd F ACT 34 29:00 4:50 Y
91. Fran Nunn F 29:00 4:50 Y
92. Marlene Reid F NSW 32 29:01 4:50 Y
93. Angie Calder F 29:03 4:50 Y
94. Lesa Wilson F 29:07 4:51 Y
95. Kerri-Ann Smith F 29:10 4:51 Y
96. Susan Ford F 37 W35 29:14 4:52 Y
97. Paula Wyllie F 29:18 4:53 Y
98. Lilian Hoskins F 29:21 4:53 Y
99. Rachael Peedom F 29:21 4:53 Y
100. Anne Corbould F 29:27 4:54 Y
101. Margaret O'Donovan F ACT 32 29:28 4:54 Y
102. Ann Finlay F 27 29:30 4:55 Y
103. Helen Peak F 35 W35 29:30 4:55 Y
104. Carolyn Steffen F ACT 36 W35 29:32 4:55 Y
105. Sonja Steffen F 29:32 4:55 Y
106. Rita Evans F 29:35 4:55 Y
107. Renee Walsh F 29:35 4:55 Y
108. Jenny Robson F 29:37 4:56 Y
109. Hannah Sykes F 12 U14 29:37 4:56 Y
110. Beverley Scown F ACT 48 W45 29:42 4:57 Y
111. Dianne Hill F 29:42 4:57 Y
112. Jacquellyn O'Leary F 29:44 4:57 Y
113. Robyn Gibbs F 29:48 4:58 Y
114. Anne-Marie Lilburn F 29:48 4:58 Y
115. Nic Plunkett-Cole F 29:53 4:58 Y
116. Helen Boyle F 30:01 5:00 Y
117. Sue Ingram F 30:01 5:00 Y
118. Sandy Lewis F 30:03 5:00 Y
119. Susan Cuddy F ACT 33 30:03 5:00 Y
120. Anne Shore F 30:03 5:00 Y
121. Wendy Davidson F ACT 43 W40 30:05 5:00 Y
122. Jenny Budd F ACT 30:05 5:00 Y
123. Janice Solomon F 30:07 5:01 Y
124. Kathy Schmierer F 30:08 5:01 Y
125. Jenny Cundy F 30:10 5:01 Y
126. Maureen Oshea F 30:10 5:01 Y
127. Belinda Weir F 30:14 5:02 Y
128. Margaret Hensley F 30:14 5:02 Y
129. Nancy Lane F 30:17 5:02 Y
130. Robyn Potts F 30:19 5:03 Y
131. Jenny Bourke F ACT 47 W45 30:19 5:03 Y
132. Bronwyn Deane F 30:21 5:03 Y
133. Ros Bauer F ACT 30 30:30 5:05 Y
134. Doris Ellis F 30:30 5:05 Y
135. Christina Flynn F 30:37 5:06 Y
136. Beverley Robinson F 30:41 5:06 Y
137. 30:48 5:08 Y
138. Jenan Cannon F 34 30:53 5:08 Y
139. Cressida Thompson F 30:59 5:09 Y
140. Chris Windsor F 31:03 5:10 Y
141. Nicola Maher F 31:05 5:10 Y
142. Jane Berry F 31:10 5:11 Y
143. Jill Berry F 31:12 5:12 Y
144. Miriam Blackburn F ACT 15 U16 31:16 5:12 Y
145. Heidi Lehtis F 31:17 5:12 Y
146. Natasha Ginniyan F 31:21 5:13 Y
147. Kathy Golden F 31:26 5:14 Y
148. Nanette Simpson F 31:28 5:14 Y
149. Carly Porter F 31:30 5:15 Y
150. Soo Plunkett-Colb F 31:30 5:15 Y
151. Rae Porter F 31:35 5:15 Y
152. Hilary Riggs F 31:39 5:16 Y
153. Jenny Gould F 31:44 5:17 Y
154. Bethany Watkins F 31:46 5:17 Y
155. Marl Koenen F 31:46 5:17 Y
156. Marie Sweet F 31:48 5:18 Y
157. Toni Graham F 31:48 5:18 Y
158. Anne Ions F 31:50 5:18 Y
159. Susan Matthews F ACT 37 W35 31:50 5:18 Y
160. Virginia Billington F 31:51 5:18 Y
161. Judi Beck F 31:52 5:18 Y
162. Janelle Perrin F 31:55 5:19 Y
163. Sue Myers F 31:59 5:19 Y
164. Sue McCudden F 31:59 5:19 Y
165. Lesley Baxter F 32:02 5:20 Y
166. Linda Ivey F 32:03 5:20 Y
167. Cilla Chapman F ACT 39 W35 32:03 5:20 Y
168. Sharyn Madigan F 32:07 5:21 Y
169. Kerri Freeman F 32:07 5:21 Y
170. Sally Cairnduff F 32:07 5:21 Y
171. Helen Cannon F 32:09 5:21 Y
172. Helena Winson F 33 32:10 5:21 Y
173. Janna Heard F 32:10 5:21 Y
174. Helen Lutton F 34 32:11 5:21 Y
175. Andrea Moss F 32:11 5:21 Y
176. Ann Baylis F ACT 40 W40 32:14 5:22 Y
177. Cathy Lilburn F 32:14 5:22 Y
178. Barbara Bayliss F ACT 38 W35 32:15 5:22 Y
179. Roe Sorensen F 32:15 5:22 Y
180. Phillippa Pang F 32:17 5:22 Y
181. Louise Hensley F 32:18 5:23 Y
182. Melissa King F 32:18 5:23 Y
183. Mary Thompson F 32:21 5:23 Y
184. Thelma Winroe F 32:24 5:24 Y
185. Marilyn Neill F 32:25 5:24 Y
186. Belinda Allison F ACT 13 U14 32:25 5:24 Y
187. Julie Hatcher F 11 U12 32:34 5:25 Y
188. J. Morrison F 32:35 5:25 Y
189. Kathryn Westrom F 32:38 5:26 Y
190. Ruth Fazakerley F 32:40 5:26 Y
191. Cindy Murphy F 32:46 5:27 Y
192. Joanne Allison F 32:47 5:27 Y
193. Cynthia Harris F ACT 35 W35 32:50 5:28 Y
194. Kate Crowe F ACT 35 W35 32:50 5:28 Y
195. Colleen North F ACT 36 W35 32:57 5:29 Y
196. Jenny Gregory F 32:57 5:29 Y
197. Linda Richardson F ACT 30 32:59 5:29 Y
198. Rowena Gageldonk F 33:00 5:30 Y
199. Jennifer Linnell F 33:03 5:30 Y
200. Chris Desmond   33:04 5:30 Y
201. Marianne Desmond F 33:04 5:30 Y
202. Anita Chambers F 33:07 5:31 Y
203. Kathy Dunn F 33:07 5:31 Y
204. Susan Mellor F 33:09 5:31 Y
205. Karen Pearson F 33:11 5:31 Y
206. Carolyn Hambley F 33:15 5:32 Y
207. Annette Flynn F 33:18 5:33 Y
208. Flona Johnson F 33:18 5:33 Y
209. Debra Waser F 33:18 5:33 Y
210. Judy Stanton F 33:20 5:33 Y
211. Soma Thomas F 33:24 5:34 Y
212. Catherine Sword F 33:25 5:34 Y
213. Marie Plunkett-Cole F ACT 45 W45 33:29 5:34 Y
214. Susan Lee F 33:29 5:34 Y
215. Geraldine Bray F 33:32 5:35 Y
216. Morvern Maclean F 33:36 5:36 Y
217. Carolynne Yates F ACT 39 W35 33:38 5:36 Y
218. Jenny Robertson F 33:50 5:38 Y
219. Anni Schiworski F 33:50 5:38 Y
220. Holly Wright F 33:57 5:39 Y
221. Penny Sharp F 34:00 5:40 Y
222. Penny Clarke F 34:00 5:40 Y
223. Susan Feeney F 34:03 5:40 Y
224. Marg.Ann Costigan F 34:04 5:40 Y
225. Barbara Pepper F 34:11 5:41 Y
226. Shelly Thomson F 34:14 5:42 Y
227. Penelope Lee F 34:14 5:42 Y
228. Patricia Murphy F 34:18 5:43 Y
229. Katie Weir F 34:20 5:43 Y
230. Karen Sismey F 34:20 5:43 Y
231. Diane Barton F 34:22 5:43 Y
232. Brenda Corbell F 34:24 5:44 Y
233. Melissa O'Neill F 34:28 5:44 Y
234. Jenny Cahill F 34:28 5:44 Y
235. Marcella Rice F 34 34:29 5:44 Y
236. Annette Connellan F ACT 35 W35 34:29 5:44 Y
237. Andrina Norden F ACT 36 W35 34:31 5:45 Y
238. Gayle Ginnane F 34:38 5:46 Y
239. Lara Veness F 34:46 5:47 Y
240. Heather Allsopp F ACT 35 W35 34:47 5:47 Y
241. Melinda Kugler F ACT 10 U12 34:47 5:47 Y
242. Marg Walsh F 34:50 5:48 Y
243. Glenys Walker F 34:50 5:48 Y
244. Sally Bailey F 34:53 5:48 Y
245. Kristen Hatch F 34:54 5:49 Y
246. Sue Hays F 34:57 5:49 Y
247. Kirsten Fairfax F 35:04 5:50 Y
248. Louise Fairfax F 35:04 5:50 Y
249. Judy Park F 35:04 5:50 Y
250. Lucille Warth F 35:09 5:51 Y
251. Sally Blundell F 35:10 5:51 Y
252. Edna Dundas F ACT 36 W35 35:10 5:51 Y
253. Alison Wyse F 35:10 5:51 Y
254. Cathy McHugh F 35:14 5:52 Y
255. Joan Mallory F ACT 55 W55 35:17 5:52 Y
256. Disa Pryor F 35:17 5:52 Y
257. Lyn Moloney F 35:20 5:53 Y
258. Amy Pryor F 35:20 5:53 Y
259. Kerry Snedden F 35:20 5:53 Y
260. Sandra Hogg F ACT 41 W40 35:27 5:54 Y
261. Carol Clarke F 35:29 5:54 Y
262. Christine Fifield F 35:43 5:57 Y
263. Maureen Bleakley F 35:43 5:57 Y
264. Deborah Greenwood F 35:46 5:57 Y
265. Diane Paul F 35:57 5:59 Y
266. Sandra Chapman F 36:00 6:00 Y
267. Mary McKenzie F 36:04 6:00 Y
268. Lesley Donohoe F ACT 35 W35 36:14 6:02 Y
269. Jeannine Smith F 36:15 6:02 Y
270. Karma Macarthur F 49 W45 36:18 6:03 Y
271. Clare O'Brien F 36:20 6:03 Y
272. Pia Antonez F 36:21 6:03 Y
273. Antonina Bolschelarski F ACT 33 36:21 6:03 Y
274. Melissa Cundy F 36:22 6:03 Y
275. Vera Koller F 36:24 6:04 Y
276. Ann Hare F ACT 37 W35 36:24 6:04 Y
277. Cheryl Barson F 36:27 6:04 Y
278. Jane Watt F 36:27 6:04 Y
279. Cathy Evans F ACT 23 36:29 6:04 Y
280. Julie Evans F 36:31 6:05 Y
281. Julianne Miles F 36:43 6:07 Y
282. Marilyn Woodward F 36:47 6:07 Y
283. Joy Bannister F 36:57 6:09 Y
284. Corinne Trevitt F 37:04 6:10 Y
285. Patricia Mullins F 37:14 6:12 Y
286. Nicki Baderle F 37:18 6:13 Y
287. Anne McGowen F 37:18 6:13 Y
288. Angela Handby F ACT 37:18 6:13 Y
289. Barbara Jackson F ACT 40 W40 37:28 6:14 Y
290. Jennifer Barnes F 37:32 6:15 Y
291. Francoise Piron F 37:40 6:16 Y
292. Amanda Walmsley F 37:43 6:17 Y
293. Paola Tulley F 37:49 6:18 Y
294. Jill Horlock F 37:52 6:18 Y
295. Hilary Young F 37:52 6:18 Y
296. Margaret Sayle F 37:57 6:19 Y
297. Bronwyn Fletcher F 37:59 6:19 Y
298. Kim Newcombe F 38:03 6:20 Y
299. Sian Williams F 38:04 6:20 Y
300. Janice Sismey F 38:10 6:21 Y
301. Jan Martin F 38:17 6:22 Y
302. Sarah Dunning F 38:31 6:25 Y
303. Louise Abello F 38:43 6:27 Y
304. Annette Suominen F 38:46 6:27 Y
305. Georgina Wilson F 38:50 6:28 Y
306. Peta Lovie F 38:53 6:28 Y
307. Alison Jacobsen F 38:57 6:29 Y
308. Robin Edwards F 39:00 6:30 Y
309. Fiona Whyte F 39:02 6:30 Y
310. Natasha Jacobsen F 39:10 6:31 Y
311. Sarah Hatch F NSW 39:28 6:34 Y
312. Jenny Abello F 39:53 6:38 Y
313. Julia Dames F 40:00 6:40 Y
314. Kylie Beevers F 40:07 6:41 Y
315. Jo Tucker F 40:31 6:45 Y
316. Alison Frazer F 40:32 6:45 Y
317. Frances Davies F 40:35 6:45 Y
318. Jenny Parker F 40:54 6:49 Y
319. Hilary McClure F 41:02 6:50 Y
320. Janice Larkin F 41:03 6:50 Y
321. Diane Sismey F 41:03 6:50 Y
322. Marta Moreno F 41:29 6:54 Y
323. Anne Groundwater F 41:29 6:54 Y
324. Maureen Maclachlan F 41:50 6:58 Y
325. Patricia Kelly F 42:29 7:04 Y
326. Susan Devereux F 42:39 7:06 Y
327. Margaret Dalheim F 42:43 7:07 Y
328. Margaret Versey F 42:46 7:07 Y
329. Libby Stewart F 42:53 7:08 Y
330. Kim Robinson F ACT 9 U10 42:53 7:08 Y
331. Marion Robinson F ACT 34 42:54 7:09 Y
332. Kristina Sheppard F 43:10 7:11 Y
333. Talitha Jonczyk F 43:13 7:12 Y
334. Mariann Jonczyk F 43:21 7:13 Y
335. Janine Scarlett F 43:21 7:13 Y
336. Lynette Robin F 43:21 7:13 Y
337. Robyn Hatcher F NSW 10 U12 43:25 7:14 Y
338. Stacey Freeman F 43:29 7:14 Y
339. Tracey Hogan F 43:47 7:17 Y
340. Kylie Cattanach F 43:47 7:17 Y
341. Carol Sharman F 43:56 7:19 Y
342. Glenda Lynch F 43:57 7:19 Y
343. Betty Berry F 37 W35 44:00 7:20 Y
344. Rosalind Manley F 44:00 7:20 Y
345. Bronwyn Frazer F 44:03 7:20 Y
346. Monica Phelan F 34 44:10 7:21 Y
347. Liz Sharpe F 44:21 7:23 Y
348. Lynn Honey F 44:28 7:24 Y
349. Robyn Middleton F 42 W40 44:28 7:24 Y
350. Annette Moloney F 44:32 7:25 Y
351. Catherine Fredericksen F 44:38 7:26 Y
352. Raina Bourke F 44:38 7:26 Y
353. Belinda Scotman F 44:43 7:27 Y
354. Elizabeth O'Brien F 44:47 7:27 Y
355. Janelle Scown F 45:25 7:34 Y
356. Maggie Johnson F 45:35 7:35 Y
357. Maureen Johnson F 45:38 7:36 Y
358. Fiona Foster F 46:07 7:41 Y
359. Margaret Foster F 46:07 7:41 Y
360. Kath Tucker F 46:45 7:47 Y
361. Marija Gutesa F 47:32 7:55 Y
362. Alison Scown F 48:21 8:03 Y
363. Margaret Whelan F 48:32 8:05 Y
364. Fiona Angus F 49:02 8:10 Y
365. Mariette Esterhuysen F 49:06 8:11 Y
366. Joy Pieterse F 49:07 8:11 Y
367. Yelena Fairfax F 49:07 8:11 Y
368. Janet Angus F 49:11 8:11 Y
369. Michelle Derbyshire F 49:11 8:11 Y
370. Vanessa Cundy F 49:17 8:12 Y
371. Celestine DeAlvia F 49:24 8:14 Y
372. Carol Gathercole F 49:52 8:18 Y
373. Maggie Nightingale F 49:59 8:19 Y
374. Esma Kennedy F 50:00 8:20 Y
375. Marie Perrin F 50:00 8:20 Y
376. Jenny Wakefield F 50:25 8:24 Y
377. Fiona Reynolds F 53:20 8:53 Y
378. Jeanette Reynolds F 53:20 8:53 Y
379. Julie Vines F 55:27 9:14 Y
380. Leannda Mackie F 55:27 9:14 Y
381. Roslyn Dundas F ACT 8 U10 56:50 9:28 Y
382. Robyn Grey F 58:32 9:45 Y
383. Sam Yeeles F 59:04 9:50 Y
384. Jean Hacken F 59:04 9:50 Y
385. Brenda Verrall F 59:04 9:50 Y
386. Betty Preston F 59:17 9:52 Y
387. Joan Jones F 59:17 9:52 Y
388. Heather Miles F 59:18 9:53 Y
389. Julia Lansley F 1:03:00 10:30 Y
390. Jacq Burridge F 1:03:00 10:30 Y
391. Cathy Moore F 1:03:07 10:31 Y
392. Liz Dalley F 1:03:07 10:31 Y
393. Peta Murray F 1:04:53 10:48 Y
394. Jan Kuhn F 1:05:01 10:50 Y
395. Suzanne Gutesa F 1:05:18 10:53 Y
396. Sylvia Shanahan F 1:06:12 11:02 Y
397. Carol Dunnet F 1:06:12 11:02 Y
398. Jill Golley F 1:06:43 11:07 Y
399. Clare Holland F 1:06:45 11:07 Y
400. Marion Pasieka F 1:06:45 11:07 Y
 
Theme 
Please contact the WebMaster
with questions or comments about this web site.
© 1999-2021 Canberra Runners. All rights reserved.
Last Updated: 27 May 2021